sensor_id;sensor_type;location;lat;lon;timestamp;temperature;humidity
60293;DHT22;52402;52.670;6.750;2023-06-22T00:00:49;17.70;99.90
60293;DHT22;52402;52.670;6.750;2023-06-22T00:03:17;17.70;99.90
60293;DHT22;52402;52.670;6.750;2023-06-22T00:05:42;17.70;99.90
60293;DHT22;52402;52.670;6.750;2023-06-22T00:08:08;17.60;99.90
60293;DHT22;52402;52.670;6.750;2023-06-22T00:10:34;17.60;99.90
60293;DHT22;52402;52.670;6.750;2023-06-22T00:13:00;17.60;99.90
60293;DHT22;52402;52.670;6.750;2023-06-22T00:15:25;17.60;99.90
60293;DHT22;52402;52.670;6.750;2023-06-22T00:17:51;17.50;99.90
60293;DHT22;52402;52.670;6.750;2023-06-22T00:20:17;17.50;99.90
60293;DHT22;52402;52.670;6.750;2023-06-22T00:22:45;17.40;99.90
60293;DHT22;52402;52.670;6.750;2023-06-22T00:25:11;17.40;99.90
60293;DHT22;52402;52.670;6.750;2023-06-22T00:27:37;17.40;99.90
60293;DHT22;52402;52.670;6.750;2023-06-22T00:30:03;17.40;99.90
60293;DHT22;52402;52.670;6.750;2023-06-22T00:32:29;17.40;99.90
60293;DHT22;52402;52.670;6.750;2023-06-22T00:34:55;17.40;99.90
60293;DHT22;52402;52.670;6.750;2023-06-22T00:37:20;17.40;99.90
60293;DHT22;52402;52.670;6.750;2023-06-22T00:39:51;17.30;99.90
60293;DHT22;52402;52.670;6.750;2023-06-22T00:42:17;17.30;99.90
60293;DHT22;52402;52.670;6.750;2023-06-22T00:44:43;17.30;99.90
60293;DHT22;52402;52.670;6.750;2023-06-22T00:47:11;17.20;99.90
60293;DHT22;52402;52.670;6.750;2023-06-22T00:49:38;17.20;99.90
60293;DHT22;52402;52.670;6.750;2023-06-22T00:52:05;17.20;99.90
60293;DHT22;52402;52.670;6.750;2023-06-22T00:54:35;17.20;99.90
60293;DHT22;52402;52.670;6.750;2023-06-22T00:57:01;17.20;99.90
60293;DHT22;52402;52.670;6.750;2023-06-22T00:59:27;17.10;99.90
60293;DHT22;52402;52.670;6.750;2023-06-22T01:01:53;17.10;99.90
60293;DHT22;52402;52.670;6.750;2023-06-22T01:04:19;17.10;99.90
60293;DHT22;52402;52.670;6.750;2023-06-22T01:07:09;17.00;99.90
60293;DHT22;52402;52.670;6.750;2023-06-22T01:12:34;17.00;99.90
60293;DHT22;52402;52.670;6.750;2023-06-22T01:15:08;17.00;99.90
60293;DHT22;52402;52.670;6.750;2023-06-22T01:17:35;16.90;99.90
60293;DHT22;52402;52.670;6.750;2023-06-22T01:20:02;16.90;99.90
60293;DHT22;52402;52.670;6.750;2023-06-22T01:22:48;16.90;99.90
60293;DHT22;52402;52.670;6.750;2023-06-22T01:25:31;16.80;99.90
60293;DHT22;52402;52.670;6.750;2023-06-22T01:28:23;16.80;99.90
60293;DHT22;52402;52.670;6.750;2023-06-22T01:30:51;16.80;99.90
60293;DHT22;52402;52.670;6.750;2023-06-22T01:33:29;16.90;99.90
60293;DHT22;52402;52.670;6.750;2023-06-22T01:35:56;16.90;99.90
60293;DHT22;52402;52.670;6.750;2023-06-22T01:38:22;16.90;99.90
60293;DHT22;52402;52.670;6.750;2023-06-22T01:40:48;16.90;99.90
60293;DHT22;52402;52.670;6.750;2023-06-22T01:43:15;17.00;99.90
60293;DHT22;52402;52.670;6.750;2023-06-22T01:45:42;17.00;99.90
60293;DHT22;52402;52.670;6.750;2023-06-22T01:48:08;17.00;99.90
60293;DHT22;52402;52.670;6.750;2023-06-22T01:50:33;16.90;99.90
60293;DHT22;52402;52.670;6.750;2023-06-22T01:52:59;17.00;99.90
60293;DHT22;52402;52.670;6.750;2023-06-22T01:55:25;17.00;99.90
60293;DHT22;52402;52.670;6.750;2023-06-22T01:57:51;16.90;99.90
60293;DHT22;52402;52.670;6.750;2023-06-22T02:00:21;16.90;99.90
60293;DHT22;52402;52.670;6.750;2023-06-22T02:02:57;16.90;99.90
60293;DHT22;52402;52.670;6.750;2023-06-22T02:05:26;16.80;99.90
60293;DHT22;52402;52.670;6.750;2023-06-22T02:08:05;16.80;99.90
60293;DHT22;52402;52.670;6.750;2023-06-22T02:10:34;16.70;99.90
60293;DHT22;52402;52.670;6.750;2023-06-22T02:13:05;16.70;99.90
60293;DHT22;52402;52.670;6.750;2023-06-22T02:15:31;16.70;99.90
60293;DHT22;52402;52.670;6.750;2023-06-22T02:17:57;16.60;99.90
60293;DHT22;52402;52.670;6.750;2023-06-22T02:20:24;16.60;99.90
60293;DHT22;52402;52.670;6.750;2023-06-22T02:22:50;16.50;99.90
60293;DHT22;52402;52.670;6.750;2023-06-22T02:25:15;16.50;99.90
60293;DHT22;52402;52.670;6.750;2023-06-22T02:27:41;16.50;99.90
60293;DHT22;52402;52.670;6.750;2023-06-22T02:30:08;16.50;99.90
60293;DHT22;52402;52.670;6.750;2023-06-22T02:32:35;16.50;99.90
60293;DHT22;52402;52.670;6.750;2023-06-22T02:35:01;16.50;99.90
60293;DHT22;52402;52.670;6.750;2023-06-22T02:37:31;16.50;99.90
60293;DHT22;52402;52.670;6.750;2023-06-22T02:39:57;16.50;99.90
60293;DHT22;52402;52.670;6.750;2023-06-22T02:42:23;16.50;99.90
60293;DHT22;52402;52.670;6.750;2023-06-22T02:44:48;16.50;99.90
60293;DHT22;52402;52.670;6.750;2023-06-22T02:47:15;16.40;99.90
60293;DHT22;52402;52.670;6.750;2023-06-22T02:49:41;16.40;99.90
60293;DHT22;52402;52.670;6.750;2023-06-22T02:52:07;16.30;99.90
60293;DHT22;52402;52.670;6.750;2023-06-22T02:54:33;16.30;99.90
60293;DHT22;52402;52.670;6.750;2023-06-22T02:56:59;16.30;99.90
60293;DHT22;52402;52.670;6.750;2023-06-22T02:59:28;16.30;99.90
60293;DHT22;52402;52.670;6.750;2023-06-22T03:01:54;16.20;99.90
60293;DHT22;52402;52.670;6.750;2023-06-22T03:04:20;16.10;99.90
60293;DHT22;52402;52.670;6.750;2023-06-22T03:06:46;16.10;99.90
60293;DHT22;52402;52.670;6.750;2023-06-22T03:09:16;16.10;99.90
60293;DHT22;52402;52.670;6.750;2023-06-22T03:11:42;16.10;99.90
60293;DHT22;52402;52.670;6.750;2023-06-22T03:14:08;16.00;99.90
60293;DHT22;52402;52.670;6.750;2023-06-22T03:16:34;16.00;99.90
60293;DHT22;52402;52.670;6.750;2023-06-22T03:19:00;16.00;99.90
60293;DHT22;52402;52.670;6.750;2023-06-22T03:21:28;16.00;99.90
60293;DHT22;52402;52.670;6.750;2023-06-22T03:23:54;16.00;99.90
60293;DHT22;52402;52.670;6.750;2023-06-22T03:26:20;15.90;99.90
60293;DHT22;52402;52.670;6.750;2023-06-22T03:28:46;15.80;99.90
60293;DHT22;52402;52.670;6.750;2023-06-22T03:31:12;15.80;99.90
60293;DHT22;52402;52.670;6.750;2023-06-22T03:33:38;15.80;99.90
60293;DHT22;52402;52.670;6.750;2023-06-22T03:36:03;15.80;99.90
60293;DHT22;52402;52.670;6.750;2023-06-22T03:38:29;15.80;99.90
60293;DHT22;52402;52.670;6.750;2023-06-22T03:40:55;15.80;99.90
60293;DHT22;52402;52.670;6.750;2023-06-22T03:43:21;15.80;99.90
60293;DHT22;52402;52.670;6.750;2023-06-22T03:45:47;15.80;99.90
60293;DHT22;52402;52.670;6.750;2023-06-22T03:48:12;15.80;99.90
60293;DHT22;52402;52.670;6.750;2023-06-22T03:50:38;15.90;99.90
60293;DHT22;52402;52.670;6.750;2023-06-22T03:53:04;15.90;99.90
60293;DHT22;52402;52.670;6.750;2023-06-22T03:55:30;15.90;99.90
60293;DHT22;52402;52.670;6.750;2023-06-22T03:57:56;16.00;99.90
60293;DHT22;52402;52.670;6.750;2023-06-22T04:00:25;15.90;99.90
60293;DHT22;52402;52.670;6.750;2023-06-22T04:02:51;16.00;99.90
60293;DHT22;52402;52.670;6.750;2023-06-22T04:05:17;15.90;99.90
60293;DHT22;52402;52.670;6.750;2023-06-22T04:07:45;15.90;99.90
60293;DHT22;52402;52.670;6.750;2023-06-22T04:10:11;15.90;99.90
60293;DHT22;52402;52.670;6.750;2023-06-22T04:12:37;16.00;99.90
60293;DHT22;52402;52.670;6.750;2023-06-22T04:15:02;15.90;99.90
60293;DHT22;52402;52.670;6.750;2023-06-22T04:17:28;15.90;99.90
60293;DHT22;52402;52.670;6.750;2023-06-22T04:19:54;15.90;99.90
60293;DHT22;52402;52.670;6.750;2023-06-22T04:22:20;16.00;99.90
60293;DHT22;52402;52.670;6.750;2023-06-22T04:24:48;16.00;99.90
60293;DHT22;52402;52.670;6.750;2023-06-22T04:27:15;16.10;99.90
60293;DHT22;52402;52.670;6.750;2023-06-22T04:29:40;16.10;99.90
60293;DHT22;52402;52.670;6.750;2023-06-22T04:32:16;16.10;99.90
60293;DHT22;52402;52.670;6.750;2023-06-22T04:34:43;16.20;99.90
60293;DHT22;52402;52.670;6.750;2023-06-22T04:37:09;16.20;99.90
60293;DHT22;52402;52.670;6.750;2023-06-22T04:39:34;16.20;99.90
60293;DHT22;52402;52.670;6.750;2023-06-22T04:42:01;16.20;99.90
60293;DHT22;52402;52.670;6.750;2023-06-22T04:44:27;16.30;99.90
60293;DHT22;52402;52.670;6.750;2023-06-22T04:46:57;16.20;99.90
60293;DHT22;52402;52.670;6.750;2023-06-22T04:49:28;16.20;99.90
60293;DHT22;52402;52.670;6.750;2023-06-22T04:52:06;16.30;99.90
60293;DHT22;52402;52.670;6.750;2023-06-22T04:54:33;16.30;99.90
60293;DHT22;52402;52.670;6.750;2023-06-22T04:57:04;16.30;99.90
60293;DHT22;52402;52.670;6.750;2023-06-22T04:59:31;16.40;99.90
60293;DHT22;52402;52.670;6.750;2023-06-22T05:01:58;16.50;99.90
60293;DHT22;52402;52.670;6.750;2023-06-22T05:04:25;16.60;99.90
60293;DHT22;52402;52.670;6.750;2023-06-22T05:06:52;16.60;99.90
60293;DHT22;52402;52.670;6.750;2023-06-22T05:09:23;16.70;99.90
60293;DHT22;52402;52.670;6.750;2023-06-22T05:11:50;16.80;99.90
60293;DHT22;52402;52.670;6.750;2023-06-22T05:17:48;16.90;99.90
60293;DHT22;52402;52.670;6.750;2023-06-22T05:20:14;17.00;99.90
60293;DHT22;52402;52.670;6.750;2023-06-22T05:22:43;17.10;99.90
60293;DHT22;52402;52.670;6.750;2023-06-22T05:28:57;17.30;99.90
60293;DHT22;52402;52.670;6.750;2023-06-22T05:31:23;17.40;99.90
60293;DHT22;52402;52.670;6.750;2023-06-22T05:33:51;17.40;99.90
60293;DHT22;52402;52.670;6.750;2023-06-22T05:36:18;17.50;99.90
60293;DHT22;52402;52.670;6.750;2023-06-22T05:38:47;17.60;99.90
60293;DHT22;52402;52.670;6.750;2023-06-22T05:41:13;17.70;99.90
60293;DHT22;52402;52.670;6.750;2023-06-22T05:43:40;17.80;99.90
60293;DHT22;52402;52.670;6.750;2023-06-22T05:46:05;17.80;99.90
60293;DHT22;52402;52.670;6.750;2023-06-22T05:48:31;17.90;99.90
60293;DHT22;52402;52.670;6.750;2023-06-22T05:50:57;18.00;99.90
60293;DHT22;52402;52.670;6.750;2023-06-22T05:53:23;18.00;99.90
60293;DHT22;52402;52.670;6.750;2023-06-22T05:55:49;18.10;99.90
60293;DHT22;52402;52.670;6.750;2023-06-22T05:58:15;18.20;99.90
60293;DHT22;52402;52.670;6.750;2023-06-22T06:00:41;18.30;99.90
60293;DHT22;52402;52.670;6.750;2023-06-22T06:03:09;18.30;99.90
60293;DHT22;52402;52.670;6.750;2023-06-22T06:05:36;18.40;99.90
60293;DHT22;52402;52.670;6.750;2023-06-22T06:08:03;18.50;99.90
60293;DHT22;52402;52.670;6.750;2023-06-22T06:10:33;18.50;99.90
60293;DHT22;52402;52.670;6.750;2023-06-22T06:13:00;18.60;99.90
60293;DHT22;52402;52.670;6.750;2023-06-22T06:15:30;18.70;99.90
60293;DHT22;52402;52.670;6.750;2023-06-22T06:17:56;18.80;99.90
60293;DHT22;52402;52.670;6.750;2023-06-22T06:20:23;18.90;99.90
60293;DHT22;52402;52.670;6.750;2023-06-22T06:22:50;19.00;99.90
60293;DHT22;52402;52.670;6.750;2023-06-22T06:25:16;19.20;99.90
60293;DHT22;52402;52.670;6.750;2023-06-22T06:27:43;19.40;99.90
60293;DHT22;52402;52.670;6.750;2023-06-22T06:30:10;19.50;99.90
60293;DHT22;52402;52.670;6.750;2023-06-22T06:32:36;19.70;99.90
60293;DHT22;52402;52.670;6.750;2023-06-22T06:35:02;19.80;99.90
60293;DHT22;52402;52.670;6.750;2023-06-22T06:37:28;19.80;99.90
60293;DHT22;52402;52.670;6.750;2023-06-22T06:39:54;20.00;99.90
60293;DHT22;52402;52.670;6.750;2023-06-22T06:42:19;20.00;99.90
60293;DHT22;52402;52.670;6.750;2023-06-22T06:44:48;20.00;99.90
60293;DHT22;52402;52.670;6.750;2023-06-22T06:47:13;20.00;99.90
60293;DHT22;52402;52.670;6.750;2023-06-22T06:49:39;20.00;99.90
60293;DHT22;52402;52.670;6.750;2023-06-22T06:52:05;20.10;99.90
60293;DHT22;52402;52.670;6.750;2023-06-22T06:54:31;20.20;99.90
60293;DHT22;52402;52.670;6.750;2023-06-22T06:56:57;20.20;99.90
60293;DHT22;52402;52.670;6.750;2023-06-22T06:59:23;20.20;99.90
60293;DHT22;52402;52.670;6.750;2023-06-22T07:01:49;20.20;99.90
60293;DHT22;52402;52.670;6.750;2023-06-22T07:04:15;20.30;99.90
60293;DHT22;52402;52.670;6.750;2023-06-22T07:06:41;20.40;99.90
60293;DHT22;52402;52.670;6.750;2023-06-22T07:09:10;20.50;99.90
60293;DHT22;52402;52.670;6.750;2023-06-22T07:11:35;20.60;99.90
60293;DHT22;52402;52.670;6.750;2023-06-22T07:14:02;20.80;99.90
60293;DHT22;52402;52.670;6.750;2023-06-22T07:16:28;20.90;99.90
60293;DHT22;52402;52.670;6.750;2023-06-22T07:18:54;21.00;99.90
60293;DHT22;52402;52.670;6.750;2023-06-22T07:21:20;21.00;99.90
60293;DHT22;52402;52.670;6.750;2023-06-22T07:23:45;21.10;99.90
60293;DHT22;52402;52.670;6.750;2023-06-22T07:26:11;21.20;99.90
60293;DHT22;52402;52.670;6.750;2023-06-22T07:28:38;21.20;99.90
60293;DHT22;52402;52.670;6.750;2023-06-22T07:31:06;21.20;99.90
60293;DHT22;52402;52.670;6.750;2023-06-22T07:33:32;21.30;99.90
60293;DHT22;52402;52.670;6.750;2023-06-22T07:35:57;21.40;99.90
60293;DHT22;52402;52.670;6.750;2023-06-22T07:38:23;21.50;99.90
60293;DHT22;52402;52.670;6.750;2023-06-22T07:40:49;21.60;99.90
60293;DHT22;52402;52.670;6.750;2023-06-22T07:43:16;21.80;99.90
60293;DHT22;52402;52.670;6.750;2023-06-22T07:45:48;21.90;99.90
60293;DHT22;52402;52.670;6.750;2023-06-22T07:48:19;22.00;99.90
60293;DHT22;52402;52.670;6.750;2023-06-22T07:50:45;22.10;99.90
60293;DHT22;52402;52.670;6.750;2023-06-22T07:53:21;22.20;99.90
60293;DHT22;52402;52.670;6.750;2023-06-22T07:55:47;22.40;99.90
60293;DHT22;52402;52.670;6.750;2023-06-22T07:58:13;22.30;99.90
60293;DHT22;52402;52.670;6.750;2023-06-22T08:00:39;22.50;99.90
60293;DHT22;52402;52.670;6.750;2023-06-22T08:03:04;22.60;99.90
60293;DHT22;52402;52.670;6.750;2023-06-22T08:05:31;22.60;99.90
60293;DHT22;52402;52.670;6.750;2023-06-22T08:07:57;22.70;99.90
60293;DHT22;52402;52.670;6.750;2023-06-22T08:10:22;22.80;99.90
60293;DHT22;52402;52.670;6.750;2023-06-22T08:12:48;22.90;99.90
60293;DHT22;52402;52.670;6.750;2023-06-22T08:15:14;23.00;99.90
60293;DHT22;52402;52.670;6.750;2023-06-22T08:17:40;23.10;99.90
60293;DHT22;52402;52.670;6.750;2023-06-22T08:20:06;23.20;99.90
60293;DHT22;52402;52.670;6.750;2023-06-22T08:22:37;23.30;99.90
60293;DHT22;52402;52.670;6.750;2023-06-22T08:25:04;23.40;99.90
60293;DHT22;52402;52.670;6.750;2023-06-22T08:27:30;23.40;99.90
60293;DHT22;52402;52.670;6.750;2023-06-22T08:29:59;23.60;99.90
60293;DHT22;52402;52.670;6.750;2023-06-22T08:32:28;23.60;99.90
60293;DHT22;52402;52.670;6.750;2023-06-22T08:34:55;23.70;99.90
60293;DHT22;52402;52.670;6.750;2023-06-22T08:37:21;23.70;99.90
60293;DHT22;52402;52.670;6.750;2023-06-22T08:39:49;23.70;99.90
60293;DHT22;52402;52.670;6.750;2023-06-22T08:42:15;23.80;99.90
60293;DHT22;52402;52.670;6.750;2023-06-22T08:44:41;24.00;99.90
60293;DHT22;52402;52.670;6.750;2023-06-22T08:47:06;24.10;99.90
60293;DHT22;52402;52.670;6.750;2023-06-22T08:49:32;24.10;99.90
60293;DHT22;52402;52.670;6.750;2023-06-22T08:51:58;24.20;99.90
60293;DHT22;52402;52.670;6.750;2023-06-22T08:54:37;24.30;99.90
60293;DHT22;52402;52.670;6.750;2023-06-22T08:57:03;24.40;99.90
60293;DHT22;52402;52.670;6.750;2023-06-22T08:59:29;24.50;99.90
60293;DHT22;52402;52.670;6.750;2023-06-22T09:01:54;24.50;99.90
60293;DHT22;52402;52.670;6.750;2023-06-22T09:04:20;24.50;99.90
60293;DHT22;52402;52.670;6.750;2023-06-22T09:06:49;24.60;99.90
60293;DHT22;52402;52.670;6.750;2023-06-22T09:09:16;24.60;99.90
60293;DHT22;52402;52.670;6.750;2023-06-22T09:11:42;24.80;99.90
60293;DHT22;52402;52.670;6.750;2023-06-22T09:14:08;24.80;99.90
60293;DHT22;52402;52.670;6.750;2023-06-22T09:16:34;25.00;99.90
60293;DHT22;52402;52.670;6.750;2023-06-22T09:19:00;25.10;99.90
60293;DHT22;52402;52.670;6.750;2023-06-22T09:21:26;25.10;99.90
60293;DHT22;52402;52.670;6.750;2023-06-22T09:23:51;25.20;99.90
60293;DHT22;52402;52.670;6.750;2023-06-22T09:26:18;25.30;99.90
60293;DHT22;52402;52.670;6.750;2023-06-22T09:28:43;25.20;99.90
60293;DHT22;52402;52.670;6.750;2023-06-22T09:31:09;25.40;99.90
60293;DHT22;52402;52.670;6.750;2023-06-22T09:33:40;25.60;99.90
60293;DHT22;52402;52.670;6.750;2023-06-22T09:36:06;25.60;99.90
60293;DHT22;52402;52.670;6.750;2023-06-22T09:38:38;25.50;99.90
60293;DHT22;52402;52.670;6.750;2023-06-22T09:41:04;25.60;99.90
60293;DHT22;52402;52.670;6.750;2023-06-22T09:43:31;25.70;99.90
60293;DHT22;52402;52.670;6.750;2023-06-22T09:45:57;25.90;99.90
60293;DHT22;52402;52.670;6.750;2023-06-22T09:48:23;26.00;99.90
60293;DHT22;52402;52.670;6.750;2023-06-22T09:50:48;25.90;99.90
60293;DHT22;52402;52.670;6.750;2023-06-22T09:53:14;26.00;99.90
60293;DHT22;52402;52.670;6.750;2023-06-22T09:55:40;26.00;99.90
60293;DHT22;52402;52.670;6.750;2023-06-22T09:58:06;26.00;99.90
60293;DHT22;52402;52.670;6.750;2023-06-22T10:00:32;26.20;99.90
60293;DHT22;52402;52.670;6.750;2023-06-22T10:02:57;26.30;99.90
60293;DHT22;52402;52.670;6.750;2023-06-22T10:05:23;26.50;99.90
60293;DHT22;52402;52.670;6.750;2023-06-22T10:07:50;26.50;99.90
60293;DHT22;52402;52.670;6.750;2023-06-22T10:10:18;26.70;99.90
60293;DHT22;52402;52.670;6.750;2023-06-22T10:12:46;26.60;99.90
60293;DHT22;52402;52.670;6.750;2023-06-22T10:15:13;26.60;99.90
60293;DHT22;52402;52.670;6.750;2023-06-22T10:17:39;26.60;99.90
60293;DHT22;52402;52.670;6.750;2023-06-22T10:20:06;26.60;99.90
60293;DHT22;52402;52.670;6.750;2023-06-22T10:22:44;26.70;99.90
60293;DHT22;52402;52.670;6.750;2023-06-22T10:25:11;26.90;99.90
60293;DHT22;52402;52.670;6.750;2023-06-22T10:27:37;26.90;99.90
60293;DHT22;52402;52.670;6.750;2023-06-22T10:30:07;26.70;99.90
60293;DHT22;52402;52.670;6.750;2023-06-22T10:32:32;26.80;99.90
60293;DHT22;52402;52.670;6.750;2023-06-22T10:34:58;27.00;99.90
60293;DHT22;52402;52.670;6.750;2023-06-22T10:37:24;27.00;99.90
60293;DHT22;52402;52.670;6.750;2023-06-22T10:39:52;27.00;99.90
60293;DHT22;52402;52.670;6.750;2023-06-22T10:42:21;27.10;99.90
60293;DHT22;52402;52.670;6.750;2023-06-22T10:44:47;27.10;99.90
60293;DHT22;52402;52.670;6.750;2023-06-22T10:47:12;27.20;99.90
60293;DHT22;52402;52.670;6.750;2023-06-22T10:49:39;27.50;99.90
60293;DHT22;52402;52.670;6.750;2023-06-22T10:52:08;27.40;99.90
60293;DHT22;52402;52.670;6.750;2023-06-22T10:54:35;27.30;99.90
60293;DHT22;52402;52.670;6.750;2023-06-22T10:57:02;27.30;99.90
60293;DHT22;52402;52.670;6.750;2023-06-22T10:59:31;27.40;99.90
60293;DHT22;52402;52.670;6.750;2023-06-22T11:01:59;27.50;99.90
60293;DHT22;52402;52.670;6.750;2023-06-22T11:04:25;27.50;99.90
60293;DHT22;52402;52.670;6.750;2023-06-22T11:06:51;27.40;99.40
60293;DHT22;52402;52.670;6.750;2023-06-22T11:09:17;27.20;99.90
60293;DHT22;52402;52.670;6.750;2023-06-22T11:11:47;27.30;99.90
60293;DHT22;52402;52.670;6.750;2023-06-22T11:14:14;27.30;99.90
60293;DHT22;52402;52.670;6.750;2023-06-22T11:16:42;27.20;99.20
60293;DHT22;52402;52.670;6.750;2023-06-22T11:19:12;27.10;99.80
60293;DHT22;52402;52.670;6.750;2023-06-22T11:21:47;27.00;99.70
60293;DHT22;52402;52.670;6.750;2023-06-22T11:24:13;26.90;99.50
60293;DHT22;52402;52.670;6.750;2023-06-22T11:26:39;26.70;99.50
60293;DHT22;52402;52.670;6.750;2023-06-22T11:29:12;26.70;99.90
60293;DHT22;52402;52.670;6.750;2023-06-22T11:31:38;26.60;99.80
60293;DHT22;52402;52.670;6.750;2023-06-22T11:34:05;26.70;99.90
60293;DHT22;52402;52.670;6.750;2023-06-22T11:36:31;26.90;99.90
60293;DHT22;52402;52.670;6.750;2023-06-22T11:38:58;27.00;99.90
60293;DHT22;52402;52.670;6.750;2023-06-22T11:41:26;27.10;99.90
60293;DHT22;52402;52.670;6.750;2023-06-22T11:43:52;27.10;99.20
60293;DHT22;52402;52.670;6.750;2023-06-22T11:46:18;27.00;99.40
60293;DHT22;52402;52.670;6.750;2023-06-22T11:48:43;27.00;99.90
60293;DHT22;52402;52.670;6.750;2023-06-22T11:51:09;26.80;99.10
60293;DHT22;52402;52.670;6.750;2023-06-22T11:53:35;26.90;99.90
60293;DHT22;52402;52.670;6.750;2023-06-22T11:56:01;27.00;99.90
60293;DHT22;52402;52.670;6.750;2023-06-22T11:58:27;27.00;99.90
60293;DHT22;52402;52.670;6.750;2023-06-22T12:00:54;27.00;99.90
60293;DHT22;52402;52.670;6.750;2023-06-22T12:03:20;27.10;99.90
60293;DHT22;52402;52.670;6.750;2023-06-22T12:05:50;27.00;99.90
60293;DHT22;52402;52.670;6.750;2023-06-22T12:08:16;26.90;99.50
60293;DHT22;52402;52.670;6.750;2023-06-22T12:10:42;27.10;99.90
60293;DHT22;52402;52.670;6.750;2023-06-22T12:13:08;27.10;99.00
60293;DHT22;52402;52.670;6.750;2023-06-22T12:15:33;27.20;99.30
60293;DHT22;52402;52.670;6.750;2023-06-22T12:17:59;27.20;99.10
60293;DHT22;52402;52.670;6.750;2023-06-22T12:20:26;27.30;99.00
60293;DHT22;52402;52.670;6.750;2023-06-22T12:22:52;27.10;99.10
60293;DHT22;52402;52.670;6.750;2023-06-22T12:25:19;27.20;98.60
60293;DHT22;52402;52.670;6.750;2023-06-22T12:27:45;27.00;99.20
60293;DHT22;52402;52.670;6.750;2023-06-22T12:30:10;27.00;99.20
60293;DHT22;52402;52.670;6.750;2023-06-22T12:32:38;27.00;99.80
60293;DHT22;52402;52.670;6.750;2023-06-22T12:35:04;26.80;98.80
60293;DHT22;52402;52.670;6.750;2023-06-22T12:37:30;26.70;97.90
60293;DHT22;52402;52.670;6.750;2023-06-22T12:39:57;26.60;98.00
60293;DHT22;52402;52.670;6.750;2023-06-22T12:42:22;26.60;99.20
60293;DHT22;52402;52.670;6.750;2023-06-22T12:44:48;26.50;99.00
60293;DHT22;52402;52.670;6.750;2023-06-22T12:47:14;26.40;98.80
60293;DHT22;52402;52.670;6.750;2023-06-22T12:49:40;26.20;98.70
60293;DHT22;52402;52.670;6.750;2023-06-22T12:52:09;26.00;98.60
60293;DHT22;52402;52.670;6.750;2023-06-22T12:54:41;25.80;99.10
60293;DHT22;52402;52.670;6.750;2023-06-22T12:57:07;25.70;98.70
60293;DHT22;52402;52.670;6.750;2023-06-22T12:59:33;25.60;98.90
60293;DHT22;52402;52.670;6.750;2023-06-22T13:01:59;25.60;99.70
60293;DHT22;52402;52.670;6.750;2023-06-22T13:04:24;25.50;99.90
60293;DHT22;52402;52.670;6.750;2023-06-22T13:06:50;25.40;99.90
60293;DHT22;52402;52.670;6.750;2023-06-22T13:09:18;25.40;99.90
60293;DHT22;52402;52.670;6.750;2023-06-22T13:11:44;25.30;99.90
60293;DHT22;52402;52.670;6.750;2023-06-22T13:14:09;25.30;99.90
60293;DHT22;52402;52.670;6.750;2023-06-22T13:16:35;25.30;99.90
60293;DHT22;52402;52.670;6.750;2023-06-22T13:19:01;25.30;99.90
60293;DHT22;52402;52.670;6.750;2023-06-22T13:21:27;25.20;99.90
60293;DHT22;52402;52.670;6.750;2023-06-22T13:23:52;25.20;99.90
60293;DHT22;52402;52.670;6.750;2023-06-22T13:26:18;25.10;99.90
60293;DHT22;52402;52.670;6.750;2023-06-22T13:28:44;25.10;99.90
60293;DHT22;52402;52.670;6.750;2023-06-22T13:31:09;25.10;99.90
60293;DHT22;52402;52.670;6.750;2023-06-22T13:33:36;25.10;99.90
60293;DHT22;52402;52.670;6.750;2023-06-22T13:36:03;25.10;99.90
60293;DHT22;52402;52.670;6.750;2023-06-22T13:38:29;25.20;99.90
60293;DHT22;52402;52.670;6.750;2023-06-22T13:40:56;25.20;99.90
60293;DHT22;52402;52.670;6.750;2023-06-22T13:43:24;25.20;99.90
60293;DHT22;52402;52.670;6.750;2023-06-22T13:45:49;25.20;99.90
60293;DHT22;52402;52.670;6.750;2023-06-22T13:48:15;25.30;99.90
60293;DHT22;52402;52.670;6.750;2023-06-22T13:50:41;25.30;99.90
60293;DHT22;52402;52.670;6.750;2023-06-22T13:53:07;25.30;99.90
60293;DHT22;52402;52.670;6.750;2023-06-22T13:55:33;25.20;99.90
60293;DHT22;52402;52.670;6.750;2023-06-22T13:57:59;25.00;99.90
60293;DHT22;52402;52.670;6.750;2023-06-22T14:00:24;25.00;99.90
60293;DHT22;52402;52.670;6.750;2023-06-22T14:02:50;25.00;99.90
60293;DHT22;52402;52.670;6.750;2023-06-22T14:05:16;24.90;99.90
60293;DHT22;52402;52.670;6.750;2023-06-22T14:07:45;24.80;99.90
60293;DHT22;52402;52.670;6.750;2023-06-22T14:10:11;24.70;99.90
60293;DHT22;52402;52.670;6.750;2023-06-22T14:12:37;24.60;99.90
60293;DHT22;52402;52.670;6.750;2023-06-22T14:15:03;24.40;99.90
60293;DHT22;52402;52.670;6.750;2023-06-22T14:17:29;24.30;99.90
60293;DHT22;52402;52.670;6.750;2023-06-22T14:19:55;24.30;99.90
60293;DHT22;52402;52.670;6.750;2023-06-22T14:22:22;24.20;99.90
60293;DHT22;52402;52.670;6.750;2023-06-22T14:24:48;24.10;99.90
60293;DHT22;52402;52.670;6.750;2023-06-22T14:27:14;24.10;99.90
60293;DHT22;52402;52.670;6.750;2023-06-22T14:29:39;24.10;99.90
60293;DHT22;52402;52.670;6.750;2023-06-22T14:32:05;24.10;99.90
60293;DHT22;52402;52.670;6.750;2023-06-22T14:34:32;24.10;99.90
60293;DHT22;52402;52.670;6.750;2023-06-22T14:36:58;24.00;99.90
60293;DHT22;52402;52.670;6.750;2023-06-22T14:39:24;24.00;99.90
60293;DHT22;52402;52.670;6.750;2023-06-22T14:41:49;24.00;99.90
60293;DHT22;52402;52.670;6.750;2023-06-22T14:44:15;24.00;99.90
60293;DHT22;52402;52.670;6.750;2023-06-22T14:46:42;24.00;99.90
60293;DHT22;52402;52.670;6.750;2023-06-22T14:49:07;23.90;99.90
60293;DHT22;52402;52.670;6.750;2023-06-22T14:51:33;23.90;99.90
60293;DHT22;52402;52.670;6.750;2023-06-22T14:54:00;23.80;99.90
60293;DHT22;52402;52.670;6.750;2023-06-22T14:56:26;23.80;99.90
60293;DHT22;52402;52.670;6.750;2023-06-22T14:58:51;23.70;99.90
60293;DHT22;52402;52.670;6.750;2023-06-22T15:01:17;23.70;99.90
60293;DHT22;52402;52.670;6.750;2023-06-22T15:03:43;23.70;99.90
60293;DHT22;52402;52.670;6.750;2023-06-22T15:06:10;23.70;99.90
60293;DHT22;52402;52.670;6.750;2023-06-22T15:08:37;23.60;99.90
60293;DHT22;52402;52.670;6.750;2023-06-22T15:11:04;23.60;99.90
60293;DHT22;52402;52.670;6.750;2023-06-22T15:13:32;23.50;99.90
60293;DHT22;52402;52.670;6.750;2023-06-22T15:15:59;23.50;99.90
60293;DHT22;52402;52.670;6.750;2023-06-22T15:18:25;23.40;99.90
60293;DHT22;52402;52.670;6.750;2023-06-22T15:20:52;23.30;99.90
60293;DHT22;52402;52.670;6.750;2023-06-22T15:23:18;23.30;99.90
60293;DHT22;52402;52.670;6.750;2023-06-22T15:25:43;23.20;99.90
60293;DHT22;52402;52.670;6.750;2023-06-22T15:28:10;23.10;99.90
60293;DHT22;52402;52.670;6.750;2023-06-22T15:30:36;23.10;99.90
60293;DHT22;52402;52.670;6.750;2023-06-22T15:33:01;23.00;99.90
60293;DHT22;52402;52.670;6.750;2023-06-22T15:35:27;22.90;99.90
60293;DHT22;52402;52.670;6.750;2023-06-22T15:37:53;22.80;99.90